sensor_id;sensor_type;location;lat;lon;timestamp;P1;durP1;ratioP1;P2;durP2;ratioP2
22963;SDS011;11648;49.306;6.934;2023-08-01T00:00:10;8.67;;;5.13;;
22963;SDS011;11648;49.306;6.934;2023-08-01T00:02:37;11.83;;;5.90;;
22963;SDS011;11648;49.306;6.934;2023-08-01T00:05:05;11.83;;;5.60;;
22963;SDS011;11648;49.306;6.934;2023-08-01T00:07:32;11.47;;;5.27;;
22963;SDS011;11648;49.306;6.934;2023-08-01T00:10:03;8.83;;;4.50;;
22963;SDS011;11648;49.306;6.934;2023-08-01T00:12:31;10.70;;;5.60;;
22963;SDS011;11648;49.306;6.934;2023-08-01T00:14:58;8.23;;;4.60;;
22963;SDS011;11648;49.306;6.934;2023-08-01T00:17:25;10.83;;;4.70;;
22963;SDS011;11648;49.306;6.934;2023-08-01T00:19:51;10.07;;;5.10;;
22963;SDS011;11648;49.306;6.934;2023-08-01T00:22:18;9.90;;;4.80;;
22963;SDS011;11648;49.306;6.934;2023-08-01T00:24:45;9.37;;;4.87;;
22963;SDS011;11648;49.306;6.934;2023-08-01T00:27:14;13.60;;;5.40;;
22963;SDS011;11648;49.306;6.934;2023-08-01T00:29:40;11.87;;;5.07;;
22963;SDS011;11648;49.306;6.934;2023-08-01T00:32:07;9.17;;;4.93;;
22963;SDS011;11648;49.306;6.934;2023-08-01T00:34:34;9.67;;;5.10;;
22963;SDS011;11648;49.306;6.934;2023-08-01T00:37:01;11.90;;;5.27;;
22963;SDS011;11648;49.306;6.934;2023-08-01T00:39:28;8.27;;;4.73;;
22963;SDS011;11648;49.306;6.934;2023-08-01T00:41:55;9.53;;;4.93;;
22963;SDS011;11648;49.306;6.934;2023-08-01T00:44:22;10.43;;;5.03;;
22963;SDS011;11648;49.306;6.934;2023-08-01T00:46:49;14.20;;;5.37;;
22963;SDS011;11648;49.306;6.934;2023-08-01T00:49:16;9.70;;;4.90;;
22963;SDS011;11648;49.306;6.934;2023-08-01T00:51:43;9.47;;;4.57;;
22963;SDS011;11648;49.306;6.934;2023-08-01T00:54:10;11.27;;;4.70;;
22963;SDS011;11648;49.306;6.934;2023-08-01T00:56:37;11.97;;;4.57;;
22963;SDS011;11648;49.306;6.934;2023-08-01T00:59:04;11.77;;;5.57;;
22963;SDS011;11648;49.306;6.934;2023-08-01T01:01:31;9.97;;;5.30;;
22963;SDS011;11648;49.306;6.934;2023-08-01T01:03:58;11.27;;;5.20;;
22963;SDS011;11648;49.306;6.934;2023-08-01T01:06:37;11.50;;;5.80;;
22963;SDS011;11648;49.306;6.934;2023-08-01T01:09:15;9.93;;;5.10;;
22963;SDS011;11648;49.306;6.934;2023-08-01T01:11:43;8.97;;;5.20;;
22963;SDS011;11648;49.306;6.934;2023-08-01T01:14:11;10.53;;;4.90;;
22963;SDS011;11648;49.306;6.934;2023-08-01T01:16:38;13.10;;;5.47;;
22963;SDS011;11648;49.306;6.934;2023-08-01T01:19:06;9.67;;;4.73;;
22963;SDS011;11648;49.306;6.934;2023-08-01T01:21:34;8.80;;;4.70;;
22963;SDS011;11648;49.306;6.934;2023-08-01T01:24:03;10.77;;;5.10;;
22963;SDS011;11648;49.306;6.934;2023-08-01T01:26:33;9.70;;;4.93;;
22963;SDS011;11648;49.306;6.934;2023-08-01T01:29:00;9.80;;;4.97;;
22963;SDS011;11648;49.306;6.934;2023-08-01T01:31:30;8.63;;;5.33;;
22963;SDS011;11648;49.306;6.934;2023-08-01T01:33:58;7.10;;;4.33;;
22963;SDS011;11648;49.306;6.934;2023-08-01T01:36:25;9.57;;;4.60;;
22963;SDS011;11648;49.306;6.934;2023-08-01T01:38:52;8.80;;;4.80;;
22963;SDS011;11648;49.306;6.934;2023-08-01T01:41:18;11.93;;;4.87;;
22963;SDS011;11648;49.306;6.934;2023-08-01T01:43:45;8.97;;;4.60;;
22963;SDS011;11648;49.306;6.934;2023-08-01T01:46:12;9.37;;;4.30;;
22963;SDS011;11648;49.306;6.934;2023-08-01T01:48:39;9.30;;;4.70;;
22963;SDS011;11648;49.306;6.934;2023-08-01T01:51:05;9.23;;;4.70;;
22963;SDS011;11648;49.306;6.934;2023-08-01T01:53:32;8.60;;;4.80;;
22963;SDS011;11648;49.306;6.934;2023-08-01T01:55:59;10.53;;;5.50;;
22963;SDS011;11648;49.306;6.934;2023-08-01T01:58:26;9.53;;;5.07;;
22963;SDS011;11648;49.306;6.934;2023-08-01T02:00:52;9.23;;;4.87;;
22963;SDS011;11648;49.306;6.934;2023-08-01T02:03:19;7.70;;;4.67;;
22963;SDS011;11648;49.306;6.934;2023-08-01T02:05:46;8.23;;;4.40;;
22963;SDS011;11648;49.306;6.934;2023-08-01T02:08:13;8.50;;;4.17;;
22963;SDS011;11648;49.306;6.934;2023-08-01T02:10:40;8.37;;;4.80;;
22963;SDS011;11648;49.306;6.934;2023-08-01T02:13:06;9.33;;;4.30;;
22963;SDS011;11648;49.306;6.934;2023-08-01T02:15:36;9.03;;;4.70;;
22963;SDS011;11648;49.306;6.934;2023-08-01T02:18:03;8.60;;;4.13;;
22963;SDS011;11648;49.306;6.934;2023-08-01T02:20:29;7.83;;;4.00;;
22963;SDS011;11648;49.306;6.934;2023-08-01T02:22:56;9.53;;;4.53;;
22963;SDS011;11648;49.306;6.934;2023-08-01T02:25:23;9.23;;;4.27;;
22963;SDS011;11648;49.306;6.934;2023-08-01T02:27:50;8.80;;;3.70;;
22963;SDS011;11648;49.306;6.934;2023-08-01T02:30:17;8.37;;;3.40;;
22963;SDS011;11648;49.306;6.934;2023-08-01T02:32:43;6.77;;;3.40;;
22963;SDS011;11648;49.306;6.934;2023-08-01T02:35:10;4.70;;;2.93;;
22963;SDS011;11648;49.306;6.934;2023-08-01T02:37:37;7.30;;;2.70;;
22963;SDS011;11648;49.306;6.934;2023-08-01T02:40:04;8.87;;;3.23;;
22963;SDS011;11648;49.306;6.934;2023-08-01T02:42:34;5.87;;;3.30;;
22963;SDS011;11648;49.306;6.934;2023-08-01T02:45:01;7.40;;;3.40;;
22963;SDS011;11648;49.306;6.934;2023-08-01T02:47:27;8.40;;;3.10;;
22963;SDS011;11648;49.306;6.934;2023-08-01T02:49:54;10.63;;;3.40;;
22963;SDS011;11648;49.306;6.934;2023-08-01T02:52:21;6.63;;;3.00;;
22963;SDS011;11648;49.306;6.934;2023-08-01T02:54:47;6.60;;;3.33;;
22963;SDS011;11648;49.306;6.934;2023-08-01T02:57:15;6.40;;;3.47;;
22963;SDS011;11648;49.306;6.934;2023-08-01T02:59:42;6.27;;;3.10;;
22963;SDS011;11648;49.306;6.934;2023-08-01T03:02:08;4.60;;;3.00;;
22963;SDS011;11648;49.306;6.934;2023-08-01T03:04:35;6.40;;;3.47;;
22963;SDS011;11648;49.306;6.934;2023-08-01T03:07:13;6.53;;;3.27;;
22963;SDS011;11648;49.306;6.934;2023-08-01T03:09:40;6.40;;;3.23;;
22963;SDS011;11648;49.306;6.934;2023-08-01T03:12:06;8.03;;;3.30;;
22963;SDS011;11648;49.306;6.934;2023-08-01T03:14:33;8.47;;;3.80;;
22963;SDS011;11648;49.306;6.934;2023-08-01T03:17:00;8.27;;;4.03;;
22963;SDS011;11648;49.306;6.934;2023-08-01T03:19:26;6.23;;;3.30;;
22963;SDS011;11648;49.306;6.934;2023-08-01T03:21:53;6.97;;;3.70;;
22963;SDS011;11648;49.306;6.934;2023-08-01T03:24:22;8.67;;;3.33;;
22963;SDS011;11648;49.306;6.934;2023-08-01T03:26:48;6.07;;;3.43;;
22963;SDS011;11648;49.306;6.934;2023-08-01T03:29:15;6.23;;;3.47;;
22963;SDS011;11648;49.306;6.934;2023-08-01T03:31:42;9.00;;;4.43;;
22963;SDS011;11648;49.306;6.934;2023-08-01T03:34:09;5.83;;;3.97;;
22963;SDS011;11648;49.306;6.934;2023-08-01T03:36:35;8.10;;;4.27;;
22963;SDS011;11648;49.306;6.934;2023-08-01T03:39:02;9.17;;;4.33;;
22963;SDS011;11648;49.306;6.934;2023-08-01T03:41:31;7.07;;;3.97;;
22963;SDS011;11648;49.306;6.934;2023-08-01T03:43:59;7.87;;;4.30;;
22963;SDS011;11648;49.306;6.934;2023-08-01T03:46:26;6.90;;;4.50;;
22963;SDS011;11648;49.306;6.934;2023-08-01T03:48:52;7.17;;;3.90;;
22963;SDS011;11648;49.306;6.934;2023-08-01T03:51:19;9.50;;;4.30;;
22963;SDS011;11648;49.306;6.934;2023-08-01T03:53:47;11.70;;;5.30;;
22963;SDS011;11648;49.306;6.934;2023-08-01T03:56:28;9.90;;;4.47;;
22963;SDS011;11648;49.306;6.934;2023-08-01T03:58:55;8.53;;;4.20;;
22963;SDS011;11648;49.306;6.934;2023-08-01T04:01:22;8.43;;;4.43;;
22963;SDS011;11648;49.306;6.934;2023-08-01T04:03:49;7.43;;;4.47;;
22963;SDS011;11648;49.306;6.934;2023-08-01T04:06:16;7.23;;;4.50;;
22963;SDS011;11648;49.306;6.934;2023-08-01T04:08:43;8.50;;;4.67;;
22963;SDS011;11648;49.306;6.934;2023-08-01T04:11:09;6.37;;;3.90;;
22963;SDS011;11648;49.306;6.934;2023-08-01T04:13:37;6.10;;;3.63;;
22963;SDS011;11648;49.306;6.934;2023-08-01T04:16:04;6.50;;;3.90;;
22963;SDS011;11648;49.306;6.934;2023-08-01T04:18:31;7.20;;;4.17;;
22963;SDS011;11648;49.306;6.934;2023-08-01T04:20:58;6.87;;;4.43;;
22963;SDS011;11648;49.306;6.934;2023-08-01T04:23:25;7.27;;;4.10;;
22963;SDS011;11648;49.306;6.934;2023-08-01T04:25:51;8.10;;;4.20;;
22963;SDS011;11648;49.306;6.934;2023-08-01T04:28:18;8.80;;;4.13;;
22963;SDS011;11648;49.306;6.934;2023-08-01T04:30:49;6.83;;;4.43;;
22963;SDS011;11648;49.306;6.934;2023-08-01T04:33:16;6.10;;;4.17;;
22963;SDS011;11648;49.306;6.934;2023-08-01T04:35:43;7.80;;;4.77;;
22963;SDS011;11648;49.306;6.934;2023-08-01T04:38:13;7.40;;;4.67;;
22963;SDS011;11648;49.306;6.934;2023-08-01T04:40:40;8.83;;;5.73;;
22963;SDS011;11648;49.306;6.934;2023-08-01T04:43:07;8.27;;;4.83;;
22963;SDS011;11648;49.306;6.934;2023-08-01T04:45:33;8.07;;;5.07;;
22963;SDS011;11648;49.306;6.934;2023-08-01T04:48:00;9.27;;;4.97;;
22963;SDS011;11648;49.306;6.934;2023-08-01T04:50:27;7.33;;;4.60;;
22963;SDS011;11648;49.306;6.934;2023-08-01T04:52:54;7.03;;;4.30;;
22963;SDS011;11648;49.306;6.934;2023-08-01T04:55:20;7.07;;;4.60;;
22963;SDS011;11648;49.306;6.934;2023-08-01T04:57:47;7.03;;;4.87;;
22963;SDS011;11648;49.306;6.934;2023-08-01T05:00:14;7.70;;;4.37;;
22963;SDS011;11648;49.306;6.934;2023-08-01T05:02:41;8.20;;;4.93;;
22963;SDS011;11648;49.306;6.934;2023-08-01T05:05:07;6.80;;;4.80;;
22963;SDS011;11648;49.306;6.934;2023-08-01T05:07:34;10.20;;;4.67;;
22963;SDS011;11648;49.306;6.934;2023-08-01T05:10:01;6.30;;;3.70;;
22963;SDS011;11648;49.306;6.934;2023-08-01T05:12:28;5.70;;;3.70;;
22963;SDS011;11648;49.306;6.934;2023-08-01T05:14:54;6.17;;;3.13;;
22963;SDS011;11648;49.306;6.934;2023-08-01T05:17:21;4.87;;;2.70;;
22963;SDS011;11648;49.306;6.934;2023-08-01T05:19:48;4.53;;;3.00;;
22963;SDS011;11648;49.306;6.934;2023-08-01T05:22:15;5.83;;;3.40;;
22963;SDS011;11648;49.306;6.934;2023-08-01T05:24:42;5.37;;;3.10;;
22963;SDS011;11648;49.306;6.934;2023-08-01T05:27:08;4.63;;;3.10;;
22963;SDS011;11648;49.306;6.934;2023-08-01T05:29:35;4.33;;;2.63;;
22963;SDS011;11648;49.306;6.934;2023-08-01T05:32:03;3.63;;;2.23;;
22963;SDS011;11648;49.306;6.934;2023-08-01T05:34:30;4.17;;;2.40;;
22963;SDS011;11648;49.306;6.934;2023-08-01T05:36:56;2.97;;;1.70;;
22963;SDS011;11648;49.306;6.934;2023-08-01T05:39:23;2.50;;;1.40;;
22963;SDS011;11648;49.306;6.934;2023-08-01T05:41:50;4.40;;;1.33;;
22963;SDS011;11648;49.306;6.934;2023-08-01T05:44:17;2.40;;;1.10;;
22963;SDS011;11648;49.306;6.934;2023-08-01T05:46:44;2.43;;;1.20;;
22963;SDS011;11648;49.306;6.934;2023-08-01T05:49:11;1.77;;;0.70;;
22963;SDS011;11648;49.306;6.934;2023-08-01T05:51:37;1.63;;;0.50;;
22963;SDS011;11648;49.306;6.934;2023-08-01T05:54:04;0.87;;;0.33;;
22963;SDS011;11648;49.306;6.934;2023-08-01T05:56:31;1.77;;;0.60;;
22963;SDS011;11648;49.306;6.934;2023-08-01T05:58:58;1.13;;;0.60;;
22963;SDS011;11648;49.306;6.934;2023-08-01T06:01:24;0.83;;;0.33;;
22963;SDS011;11648;49.306;6.934;2023-08-01T06:03:51;0.83;;;0.40;;
22963;SDS011;11648;49.306;6.934;2023-08-01T06:06:18;0.57;;;0.40;;
22963;SDS011;11648;49.306;6.934;2023-08-01T06:08:45;0.97;;;0.40;;
22963;SDS011;11648;49.306;6.934;2023-08-01T06:11:11;0.80;;;0.40;;
22963;SDS011;11648;49.306;6.934;2023-08-01T06:13:38;0.77;;;0.30;;
22963;SDS011;11648;49.306;6.934;2023-08-01T06:16:05;1.07;;;0.37;;
22963;SDS011;11648;49.306;6.934;2023-08-01T06:18:32;0.50;;;0.27;;
22963;SDS011;11648;49.306;6.934;2023-08-01T06:20:58;1.60;;;0.33;;
22963;SDS011;11648;49.306;6.934;2023-08-01T06:23:25;0.80;;;0.30;;
22963;SDS011;11648;49.306;6.934;2023-08-01T06:25:52;1.03;;;0.30;;
22963;SDS011;11648;49.306;6.934;2023-08-01T06:28:19;1.40;;;0.40;;
22963;SDS011;11648;49.306;6.934;2023-08-01T06:30:45;0.53;;;0.20;;
22963;SDS011;11648;49.306;6.934;2023-08-01T06:33:12;1.43;;;0.30;;
22963;SDS011;11648;49.306;6.934;2023-08-01T06:35:39;0.30;;;0.20;;
22963;SDS011;11648;49.306;6.934;2023-08-01T06:38:05;0.60;;;0.30;;
22963;SDS011;11648;49.306;6.934;2023-08-01T06:40:32;0.80;;;0.30;;
22963;SDS011;11648;49.306;6.934;2023-08-01T06:42:59;1.40;;;0.30;;
22963;SDS011;11648;49.306;6.934;2023-08-01T06:45:26;0.40;;;0.20;;
22963;SDS011;11648;49.306;6.934;2023-08-01T06:47:52;0.63;;;0.30;;
22963;SDS011;11648;49.306;6.934;2023-08-01T06:50:19;0.83;;;0.30;;
22963;SDS011;11648;49.306;6.934;2023-08-01T06:52:46;0.93;;;0.40;;
22963;SDS011;11648;49.306;6.934;2023-08-01T06:55:13;0.20;;;0.17;;
22963;SDS011;11648;49.306;6.934;2023-08-01T06:57:39;1.37;;;0.30;;
22963;SDS011;11648;49.306;6.934;2023-08-01T07:00:06;0.80;;;0.20;;
22963;SDS011;11648;49.306;6.934;2023-08-01T07:02:34;0.70;;;0.30;;
22963;SDS011;11648;49.306;6.934;2023-08-01T07:05:00;1.33;;;0.20;;
22963;SDS011;11648;49.306;6.934;2023-08-01T07:07:27;1.23;;;0.20;;
22963;SDS011;11648;49.306;6.934;2023-08-01T07:09:54;0.77;;;0.30;;
22963;SDS011;11648;49.306;6.934;2023-08-01T07:12:20;0.73;;;0.20;;
22963;SDS011;11648;49.306;6.934;2023-08-01T07:14:47;1.60;;;0.30;;
22963;SDS011;11648;49.306;6.934;2023-08-01T07:17:14;0.50;;;0.20;;
22963;SDS011;11648;49.306;6.934;2023-08-01T07:19:41;1.63;;;0.30;;
22963;SDS011;11648;49.306;6.934;2023-08-01T07:22:07;0.63;;;0.30;;
22963;SDS011;11648;49.306;6.934;2023-08-01T07:24:34;0.70;;;0.30;;
22963;SDS011;11648;49.306;6.934;2023-08-01T07:27:01;2.07;;;0.40;;
22963;SDS011;11648;49.306;6.934;2023-08-01T07:29:28;0.53;;;0.30;;
22963;SDS011;11648;49.306;6.934;2023-08-01T07:31:54;1.80;;;0.80;;
22963;SDS011;11648;49.306;6.934;2023-08-01T07:34:21;1.27;;;0.73;;
22963;SDS011;11648;49.306;6.934;2023-08-01T07:36:49;1.80;;;0.60;;
22963;SDS011;11648;49.306;6.934;2023-08-01T07:39:16;1.30;;;0.57;;
22963;SDS011;11648;49.306;6.934;2023-08-01T07:41:43;1.60;;;0.67;;
22963;SDS011;11648;49.306;6.934;2023-08-01T07:44:10;3.63;;;0.60;;
22963;SDS011;11648;49.306;6.934;2023-08-01T07:46:36;0.87;;;0.50;;
22963;SDS011;11648;49.306;6.934;2023-08-01T07:49:04;1.17;;;0.50;;
22963;SDS011;11648;49.306;6.934;2023-08-01T07:51:30;2.20;;;0.50;;
22963;SDS011;11648;49.306;6.934;2023-08-01T07:53:57;1.33;;;0.40;;
22963;SDS011;11648;49.306;6.934;2023-08-01T07:56:24;1.30;;;0.40;;
22963;SDS011;11648;49.306;6.934;2023-08-01T07:58:51;1.13;;;0.60;;
22963;SDS011;11648;49.306;6.934;2023-08-01T08:01:18;2.23;;;0.70;;
22963;SDS011;11648;49.306;6.934;2023-08-01T08:03:44;1.93;;;0.63;;
22963;SDS011;11648;49.306;6.934;2023-08-01T08:06:11;2.13;;;0.70;;
22963;SDS011;11648;49.306;6.934;2023-08-01T08:08:38;2.70;;;0.70;;
22963;SDS011;11648;49.306;6.934;2023-08-01T08:11:05;2.93;;;0.80;;
22963;SDS011;11648;49.306;6.934;2023-08-01T08:13:32;2.00;;;0.73;;
22963;SDS011;11648;49.306;6.934;2023-08-01T08:15:58;2.90;;;0.80;;
22963;SDS011;11648;49.306;6.934;2023-08-01T08:18:25;2.10;;;0.70;;
22963;SDS011;11648;49.306;6.934;2023-08-01T08:20:53;3.50;;;0.90;;
22963;SDS011;11648;49.306;6.934;2023-08-01T08:23:19;4.50;;;1.00;;
22963;SDS011;11648;49.306;6.934;2023-08-01T08:25:46;2.37;;;0.90;;
22963;SDS011;11648;49.306;6.934;2023-08-01T08:28:13;2.90;;;0.90;;
22963;SDS011;11648;49.306;6.934;2023-08-01T08:30:40;3.50;;;1.00;;
22963;SDS011;11648;49.306;6.934;2023-08-01T08:33:07;2.97;;;1.13;;
22963;SDS011;11648;49.306;6.934;2023-08-01T08:35:37;4.73;;;1.10;;
22963;SDS011;11648;49.306;6.934;2023-08-01T08:38:04;3.17;;;1.20;;
22963;SDS011;11648;49.306;6.934;2023-08-01T08:40:33;2.20;;;1.10;;
22963;SDS011;11648;49.306;6.934;2023-08-01T08:43:01;2.17;;;1.10;;
22963;SDS011;11648;49.306;6.934;2023-08-01T08:45:31;3.10;;;1.30;;
22963;SDS011;11648;49.306;6.934;2023-08-01T08:48:02;3.03;;;1.30;;
22963;SDS011;11648;49.306;6.934;2023-08-01T08:50:39;3.23;;;1.37;;
22963;SDS011;11648;49.306;6.934;2023-08-01T08:53:06;3.23;;;1.40;;
22963;SDS011;11648;49.306;6.934;2023-08-01T08:55:39;5.27;;;1.27;;
22963;SDS011;11648;49.306;6.934;2023-08-01T08:58:06;3.13;;;1.40;;
22963;SDS011;11648;49.306;6.934;2023-08-01T09:00:38;2.90;;;1.23;;
22963;SDS011;11648;49.306;6.934;2023-08-01T09:03:05;2.20;;;1.20;;
22963;SDS011;11648;49.306;6.934;2023-08-01T09:05:45;4.07;;;1.30;;
22963;SDS011;11648;49.306;6.934;2023-08-01T09:08:20;2.78;;;1.50;;
22963;SDS011;11648;49.306;6.934;2023-08-01T09:10:47;1.85;;;1.00;;
22963;SDS011;11648;49.306;6.934;2023-08-01T09:13:14;4.15;;;1.40;;
22963;SDS011;11648;49.306;6.934;2023-08-01T09:15:42;4.28;;;1.25;;
22963;SDS011;11648;49.306;6.934;2023-08-01T09:18:10;3.45;;;1.35;;
22963;SDS011;11648;49.306;6.934;2023-08-01T09:20:55;2.95;;;1.13;;
22963;SDS011;11648;49.306;6.934;2023-08-01T09:23:28;3.08;;;1.20;;
22963;SDS011;11648;49.306;6.934;2023-08-01T09:25:57;3.53;;;1.52;;
22963;SDS011;11648;49.306;6.934;2023-08-01T09:28:26;4.13;;;1.40;;
22963;SDS011;11648;49.306;6.934;2023-08-01T09:30:54;3.53;;;1.50;;
22963;SDS011;11648;49.306;6.934;2023-08-01T09:33:23;3.80;;;1.50;;
22963;SDS011;11648;49.306;6.934;2023-08-01T09:35:50;3.67;;;1.40;;
22963;SDS011;11648;49.306;6.934;2023-08-01T09:38:17;4.00;;;1.20;;
22963;SDS011;11648;49.306;6.934;2023-08-01T09:40:45;4.23;;;1.37;;
22963;SDS011;11648;49.306;6.934;2023-08-01T09:43:12;2.57;;;1.50;;
22963;SDS011;11648;49.306;6.934;2023-08-01T09:45:49;2.97;;;1.50;;
22963;SDS011;11648;49.306;6.934;2023-08-01T09:48:22;5.40;;;1.60;;
22963;SDS011;11648;49.306;6.934;2023-08-01T09:50:50;3.43;;;1.30;;
22963;SDS011;11648;49.306;6.934;2023-08-01T09:53:17;3.97;;;1.50;;
22963;SDS011;11648;49.306;6.934;2023-08-01T09:55:44;2.75;;;1.10;;
22963;SDS011;11648;49.306;6.934;2023-08-01T09:58:12;2.50;;;1.17;;
22963;SDS011;11648;49.306;6.934;2023-08-01T10:00:40;2.22;;;1.10;;
22963;SDS011;11648;49.306;6.934;2023-08-01T10:03:07;3.53;;;1.27;;
22963;SDS011;11648;49.306;6.934;2023-08-01T10:05:34;3.60;;;1.40;;
22963;SDS011;11648;49.306;6.934;2023-08-01T10:08:05;2.73;;;1.00;;
22963;SDS011;11648;49.306;6.934;2023-08-01T10:10:32;2.10;;;1.40;;
22963;SDS011;11648;49.306;6.934;2023-08-01T10:13:00;2.60;;;1.20;;
22963;SDS011;11648;49.306;6.934;2023-08-01T10:15:28;3.28;;;1.20;;
22963;SDS011;11648;49.306;6.934;2023-08-01T10:17:55;1.83;;;0.95;;
22963;SDS011;11648;49.306;6.934;2023-08-01T10:20:23;4.47;;;1.45;;
22963;SDS011;11648;49.306;6.934;2023-08-01T10:22:50;3.05;;;1.30;;
22963;SDS011;11648;49.306;6.934;2023-08-01T10:25:18;3.13;;;1.30;;
22963;SDS011;11648;49.306;6.934;2023-08-01T10:27:56;3.40;;;1.00;;
22963;SDS011;11648;49.306;6.934;2023-08-01T10:30:30;3.38;;;1.40;;
22963;SDS011;11648;49.306;6.934;2023-08-01T10:32:58;4.10;;;1.27;;
22963;SDS011;11648;49.306;6.934;2023-08-01T10:35:36;3.22;;;1.63;;
22963;SDS011;11648;49.306;6.934;2023-08-01T10:38:07;4.40;;;1.30;;
22963;SDS011;11648;49.306;6.934;2023-08-01T10:40:39;2.85;;;1.40;;
22963;SDS011;11648;49.306;6.934;2023-08-01T10:43:20;3.28;;;1.40;;
22963;SDS011;11648;49.306;6.934;2023-08-01T10:45:48;4.32;;;1.35;;
22963;SDS011;11648;49.306;6.934;2023-08-01T10:48:26;2.58;;;1.38;;
22963;SDS011;11648;49.306;6.934;2023-08-01T10:50:56;2.58;;;1.15;;
22963;SDS011;11648;49.306;6.934;2023-08-01T10:53:23;3.38;;;1.30;;
22963;SDS011;11648;49.306;6.934;2023-08-01T10:55:50;4.97;;;1.30;;
22963;SDS011;11648;49.306;6.934;2023-08-01T10:58:16;3.05;;;1.45;;
22963;SDS011;11648;49.306;6.934;2023-08-01T11:00:43;2.40;;;1.40;;
22963;SDS011;11648;49.306;6.934;2023-08-01T11:03:10;3.10;;;1.45;;
22963;SDS011;11648;49.306;6.934;2023-08-01T11:05:37;2.38;;;1.10;;
22963;SDS011;11648;49.306;6.934;2023-08-01T11:08:04;4.20;;;1.30;;
22963;SDS011;11648;49.306;6.934;2023-08-01T11:10:32;4.95;;;1.58;;
22963;SDS011;11648;49.306;6.934;2023-08-01T11:12:59;3.78;;;1.58;;
22963;SDS011;11648;49.306;6.934;2023-08-01T11:15:26;3.00;;;1.40;;
22963;SDS011;11648;49.306;6.934;2023-08-01T11:17:54;4.30;;;1.50;;
22963;SDS011;11648;49.306;6.934;2023-08-01T11:20:22;2.30;;;1.15;;
22963;SDS011;11648;49.306;6.934;2023-08-01T11:28:07;4.85;;;1.75;;
22963;SDS011;11648;49.306;6.934;2023-08-01T11:30:36;3.58;;;1.35;;
22963;SDS011;11648;49.306;6.934;2023-08-01T11:33:19;2.67;;;1.25;;
22963;SDS011;11648;49.306;6.934;2023-08-01T11:35:51;3.50;;;1.30;;
22963;SDS011;11648;49.306;6.934;2023-08-01T11:38:26;2.45;;;1.30;;
22963;SDS011;11648;49.306;6.934;2023-08-01T11:41:03;3.90;;;1.50;;
22963;SDS011;11648;49.306;6.934;2023-08-01T11:43:40;2.47;;;1.40;;
22963;SDS011;11648;49.306;6.934;2023-08-01T11:46:08;2.70;;;1.25;;
22963;SDS011;11648;49.306;6.934;2023-08-01T11:48:35;2.67;;;1.50;;
22963;SDS011;11648;49.306;6.934;2023-08-01T11:51:02;3.45;;;1.50;;
22963;SDS011;11648;49.306;6.934;2023-08-01T11:53:30;3.72;;;1.40;;
22963;SDS011;11648;49.306;6.934;2023-08-01T11:56:04;2.75;;;1.27;;
22963;SDS011;11648;49.306;6.934;2023-08-01T11:58:32;2.55;;;1.15;;
22963;SDS011;11648;49.306;6.934;2023-08-01T12:01:05;3.25;;;1.40;;
22963;SDS011;11648;49.306;6.934;2023-08-01T12:03:42;5.70;;;1.35;;
22963;SDS011;11648;49.306;6.934;2023-08-01T12:06:13;2.90;;;1.25;;
22963;SDS011;11648;49.306;6.934;2023-08-01T12:08:43;3.08;;;1.30;;
22963;SDS011;11648;49.306;6.934;2023-08-01T12:14:07;5.45;;;1.55;;
22963;SDS011;11648;49.306;6.934;2023-08-01T12:16:36;4.20;;;1.40;;
22963;SDS011;11648;49.306;6.934;2023-08-01T12:19:05;3.05;;;1.30;;
22963;SDS011;11648;49.306;6.934;2023-08-01T12:21:32;3.70;;;1.60;;
22963;SDS011;11648;49.306;6.934;2023-08-01T12:24:00;3.83;;;1.47;;
22963;SDS011;11648;49.306;6.934;2023-08-01T12:26:27;6.60;;;1.63;;
22963;SDS011;11648;49.306;6.934;2023-08-01T12:28:54;3.50;;;1.33;;
22963;SDS011;11648;49.306;6.934;2023-08-01T12:31:22;4.43;;;1.50;;
22963;SDS011;11648;49.306;6.934;2023-08-01T12:33:49;2.50;;;1.20;;
22963;SDS011;11648;49.306;6.934;2023-08-01T12:36:16;2.17;;;1.15;;
22963;SDS011;11648;49.306;6.934;2023-08-01T12:38:43;3.53;;;1.30;;
22963;SDS011;11648;49.306;6.934;2023-08-01T12:41:10;2.58;;;1.33;;
22963;SDS011;11648;49.306;6.934;2023-08-01T12:43:37;3.97;;;1.30;;
22963;SDS011;11648;49.306;6.934;2023-08-01T12:46:03;3.60;;;1.20;;
22963;SDS011;11648;49.306;6.934;2023-08-01T12:48:30;4.30;;;1.27;;
22963;SDS011;11648;49.306;6.934;2023-08-01T12:50:57;3.22;;;1.23;;
22963;SDS011;11648;49.306;6.934;2023-08-01T12:53:24;2.45;;;1.20;;
22963;SDS011;11648;49.306;6.934;2023-08-01T12:55:56;3.67;;;1.40;;
22963;SDS011;11648;49.306;6.934;2023-08-01T12:58:22;3.50;;;1.25;;
22963;SDS011;11648;49.306;6.934;2023-08-01T13:00:49;4.50;;;1.33;;
22963;SDS011;11648;49.306;6.934;2023-08-01T13:03:16;2.80;;;1.30;;
22963;SDS011;11648;49.306;6.934;2023-08-01T13:05:43;3.53;;;1.20;;
22963;SDS011;11648;49.306;6.934;2023-08-01T13:08:10;2.70;;;1.20;;
22963;SDS011;11648;49.306;6.934;2023-08-01T13:10:37;2.40;;;1.05;;
22963;SDS011;11648;49.306;6.934;2023-08-01T13:13:05;3.25;;;1.20;;
22963;SDS011;11648;49.306;6.934;2023-08-01T13:15:32;2.72;;;1.10;;
22963;SDS011;11648;49.306;6.934;2023-08-01T13:17:59;3.28;;;1.50;;
22963;SDS011;11648;49.306;6.934;2023-08-01T13:20:27;3.37;;;1.30;;
22963;SDS011;11648;49.306;6.934;2023-08-01T13:22:56;3.15;;;1.10;;
22963;SDS011;11648;49.306;6.934;2023-08-01T13:25:23;2.58;;;1.27;;
22963;SDS011;11648;49.306;6.934;2023-08-01T13:27:49;4.22;;;1.27;;
22963;SDS011;11648;49.306;6.934;2023-08-01T13:30:16;2.85;;;1.30;;
22963;SDS011;11648;49.306;6.934;2023-08-01T13:32:45;3.13;;;1.20;;
22963;SDS011;11648;49.306;6.934;2023-08-01T13:35:13;2.92;;;1.15;;
22963;SDS011;11648;49.306;6.934;2023-08-01T13:37:40;3.38;;;1.17;;
22963;SDS011;11648;49.306;6.934;2023-08-01T13:40:07;4.55;;;1.38;;
22963;SDS011;11648;49.306;6.934;2023-08-01T13:42:35;2.75;;;1.00;;
22963;SDS011;11648;49.306;6.934;2023-08-01T13:45:02;2.97;;;1.20;;
22963;SDS011;11648;49.306;6.934;2023-08-01T13:47:29;2.88;;;1.23;;
22963;SDS011;11648;49.306;6.934;2023-08-01T13:49:56;3.70;;;1.20;;
22963;SDS011;11648;49.306;6.934;2023-08-01T13:52:23;2.50;;;1.40;;
22963;SDS011;11648;49.306;6.934;2023-08-01T13:54:50;3.13;;;1.20;;
22963;SDS011;11648;49.306;6.934;2023-08-01T13:57:17;2.70;;;1.30;;
22963;SDS011;11648;49.306;6.934;2023-08-01T13:59:44;2.17;;;1.23;;
22963;SDS011;11648;49.306;6.934;2023-08-01T14:02:20;3.70;;;1.30;;
22963;SDS011;11648;49.306;6.934;2023-08-01T14:04:50;3.20;;;1.27;;
22963;SDS011;11648;49.306;6.934;2023-08-01T14:07:17;4.25;;;1.20;;
22963;SDS011;11648;49.306;6.934;2023-08-01T14:09:44;3.00;;;1.02;;
22963;SDS011;11648;49.306;6.934;2023-08-01T14:12:11;3.45;;;1.30;;
22963;SDS011;11648;49.306;6.934;2023-08-01T14:14:37;3.60;;;1.38;;
22963;SDS011;11648;49.306;6.934;2023-08-01T14:17:04;3.00;;;1.40;;
22963;SDS011;11648;49.306;6.934;2023-08-01T14:19:31;5.27;;;1.20;;
22963;SDS011;11648;49.306;6.934;2023-08-01T14:21:58;5.23;;;1.30;;
22963;SDS011;11648;49.306;6.934;2023-08-01T14:24:25;2.70;;;1.40;;
22963;SDS011;11648;49.306;6.934;2023-08-01T14:26:51;4.73;;;1.30;;
22963;SDS011;11648;49.306;6.934;2023-08-01T14:29:18;4.72;;;1.40;;
22963;SDS011;11648;49.306;6.934;2023-08-01T14:31:49;3.50;;;1.33;;
22963;SDS011;11648;49.306;6.934;2023-08-01T14:34:16;4.37;;;1.40;;
22963;SDS011;11648;49.306;6.934;2023-08-01T14:36:43;4.30;;;1.70;;
22963;SDS011;11648;49.306;6.934;2023-08-01T14:39:17;3.07;;;1.30;;
22963;SDS011;11648;49.306;6.934;2023-08-01T14:41:49;3.30;;;1.33;;
22963;SDS011;11648;49.306;6.934;2023-08-01T14:44:19;3.00;;;1.33;;
22963;SDS011;11648;49.306;6.934;2023-08-01T14:46:46;3.07;;;1.40;;
22963;SDS011;11648;49.306;6.934;2023-08-01T14:49:13;4.70;;;1.40;;
22963;SDS011;11648;49.306;6.934;2023-08-01T14:51:39;5.03;;;1.60;;
22963;SDS011;11648;49.306;6.934;2023-08-01T14:54:06;4.17;;;1.40;;
22963;SDS011;11648;49.306;6.934;2023-08-01T14:56:34;2.10;;;1.03;;
22963;SDS011;11648;49.306;6.934;2023-08-01T14:59:01;3.20;;;1.33;;